sensor_id;sensor_type;location;lat;lon;timestamp;pressure;altitude;pressure_sealevel;temperature;humidity
24858;BME280;12935;50.782;6.074;2022-09-12T00:02:21;99606.25;;;15.77;100.00
24858;BME280;12935;50.782;6.074;2022-09-12T00:04:46;99611.41;;;15.75;100.00
24858;BME280;12935;50.782;6.074;2022-09-12T00:07:12;99605.06;;;15.78;100.00
24858;BME280;12935;50.782;6.074;2022-09-12T00:09:37;99601.94;;;15.76;100.00
24858;BME280;12935;50.782;6.074;2022-09-12T00:12:03;99598.78;;;15.77;100.00
24858;BME280;12935;50.782;6.074;2022-09-12T00:14:30;99603.09;;;15.78;100.00
24858;BME280;12935;50.782;6.074;2022-09-12T00:16:59;99599.19;;;15.76;100.00
24858;BME280;12935;50.782;6.074;2022-09-12T00:19:25;99597.63;;;15.75;100.00
24858;BME280;12935;50.782;6.074;2022-09-12T00:21:51;99596.88;;;15.74;100.00
24858;BME280;12935;50.782;6.074;2022-09-12T00:24:17;99596.97;;;15.71;100.00
24858;BME280;12935;50.782;6.074;2022-09-12T00:26:42;99595.75;;;15.72;100.00
24858;BME280;12935;50.782;6.074;2022-09-12T00:29:10;99598.09;;;15.73;100.00
24858;BME280;12935;50.782;6.074;2022-09-12T00:31:38;99593.44;;;15.70;100.00
24858;BME280;12935;50.782;6.074;2022-09-12T00:34:04;99586.94;;;15.61;100.00
24858;BME280;12935;50.782;6.074;2022-09-12T00:36:29;99588.47;;;15.62;100.00
24858;BME280;12935;50.782;6.074;2022-09-12T00:38:55;99582.53;;;15.63;100.00
24858;BME280;12935;50.782;6.074;2022-09-12T00:41:24;99586.44;;;15.66;100.00
24858;BME280;12935;50.782;6.074;2022-09-12T00:43:52;99582.47;;;15.67;100.00
24858;BME280;12935;50.782;6.074;2022-09-12T00:48:55;99582.84;;;15.69;100.00
24858;BME280;12935;50.782;6.074;2022-09-12T00:51:22;99568.28;;;15.68;100.00
24858;BME280;12935;50.782;6.074;2022-09-12T00:53:49;99572.66;;;15.66;100.00
24858;BME280;12935;50.782;6.074;2022-09-12T00:56:17;99575.78;;;15.68;100.00
24858;BME280;12935;50.782;6.074;2022-09-12T00:58:57;99576.19;;;15.66;100.00
24858;BME280;12935;50.782;6.074;2022-09-12T01:01:23;99566.72;;;15.67;100.00
24858;BME280;12935;50.782;6.074;2022-09-12T01:03:49;99564.41;;;15.66;100.00
24858;BME280;12935;50.782;6.074;2022-09-12T01:06:21;99564.41;;;15.66;100.00
24858;BME280;12935;50.782;6.074;2022-09-12T01:08:50;99569.84;;;15.69;100.00
24858;BME280;12935;50.782;6.074;2022-09-12T01:11:17;99562.00;;;15.68;100.00
24858;BME280;12935;50.782;6.074;2022-09-12T01:13:44;99561.03;;;15.58;100.00
24858;BME280;12935;50.782;6.074;2022-09-12T01:16:10;99564.41;;;15.26;100.00
24858;BME280;12935;50.782;6.074;2022-09-12T01:18:47;99560.50;;;15.04;100.00
24858;BME280;12935;50.782;6.074;2022-09-12T01:29:55;99553.75;;;15.08;100.00
24858;BME280;12935;50.782;6.074;2022-09-12T01:35:05;99549.56;;;15.00;100.00
24858;BME280;12935;50.782;6.074;2022-09-12T01:37:43;99554.44;;;14.93;100.00
24858;BME280;12935;50.782;6.074;2022-09-12T01:43:01;99550.28;;;15.04;100.00
24858;BME280;12935;50.782;6.074;2022-09-12T01:45:42;99544.06;;;15.00;100.00
24858;BME280;12935;50.782;6.074;2022-09-12T01:48:18;99551.53;;;15.00;100.00
24858;BME280;12935;50.782;6.074;2022-09-12T01:50:50;99538.56;;;15.00;100.00
24858;BME280;12935;50.782;6.074;2022-09-12T01:53:24;99540.88;;;15.02;100.00
24858;BME280;12935;50.782;6.074;2022-09-12T01:55:58;99538.00;;;14.89;100.00
24858;BME280;12935;50.782;6.074;2022-09-12T01:58:34;99534.47;;;14.89;100.00
24858;BME280;12935;50.782;6.074;2022-09-12T02:01:11;99532.47;;;14.89;100.00
24858;BME280;12935;50.782;6.074;2022-09-12T02:03:47;99534.03;;;14.90;100.00
24858;BME280;12935;50.782;6.074;2022-09-12T02:06:20;99525.38;;;14.92;100.00
24858;BME280;12935;50.782;6.074;2022-09-12T02:08:51;99529.66;;;14.93;100.00
24858;BME280;12935;50.782;6.074;2022-09-12T02:11:17;99520.53;;;14.96;100.00
24858;BME280;12935;50.782;6.074;2022-09-12T02:13:50;99519.44;;;14.93;100.00
24858;BME280;12935;50.782;6.074;2022-09-12T02:16:37;99517.16;;;14.88;100.00
24858;BME280;12935;50.782;6.074;2022-09-12T02:19:22;99510.91;;;14.88;100.00
24858;BME280;12935;50.782;6.074;2022-09-12T02:21:54;99508.50;;;14.90;100.00
24858;BME280;12935;50.782;6.074;2022-09-12T02:24:25;99518.50;;;15.00;100.00
24858;BME280;12935;50.782;6.074;2022-09-12T02:26:56;99519.16;;;15.07;100.00
24858;BME280;12935;50.782;6.074;2022-09-12T02:29:23;99516.31;;;15.11;100.00
24858;BME280;12935;50.782;6.074;2022-09-12T02:31:58;99520.56;;;15.16;100.00
24858;BME280;12935;50.782;6.074;2022-09-12T02:37:08;99516.53;;;15.20;100.00
24858;BME280;12935;50.782;6.074;2022-09-12T02:39:37;99508.28;;;15.20;100.00
24858;BME280;12935;50.782;6.074;2022-09-12T02:42:03;99505.53;;;15.20;100.00
24858;BME280;12935;50.782;6.074;2022-09-12T02:44:29;99507.88;;;15.22;100.00
24858;BME280;12935;50.782;6.074;2022-09-12T02:47:01;99503.28;;;15.15;100.00
24858;BME280;12935;50.782;6.074;2022-09-12T02:49:28;99506.44;;;15.14;100.00
24858;BME280;12935;50.782;6.074;2022-09-12T02:51:53;99499.81;;;15.11;100.00
24858;BME280;12935;50.782;6.074;2022-09-12T02:54:19;99501.72;;;15.14;100.00
24858;BME280;12935;50.782;6.074;2022-09-12T02:56:45;99503.69;;;15.14;100.00
24858;BME280;12935;50.782;6.074;2022-09-12T02:59:14;99502.84;;;15.17;100.00
24858;BME280;12935;50.782;6.074;2022-09-12T03:10:24;99495.22;;;15.24;100.00
24858;BME280;12935;50.782;6.074;2022-09-12T03:13:18;99499.09;;;15.27;100.00
24858;BME280;12935;50.782;6.074;2022-09-12T03:15:54;99499.78;;;15.31;100.00
24858;BME280;12935;50.782;6.074;2022-09-12T03:18:50;99495.06;;;15.31;100.00
24858;BME280;12935;50.782;6.074;2022-09-12T03:24:17;99501.72;;;15.34;100.00
24858;BME280;12935;50.782;6.074;2022-09-12T03:26:47;99495.00;;;15.35;100.00
24858;BME280;12935;50.782;6.074;2022-09-12T03:29:15;99498.19;;;15.33;100.00
24858;BME280;12935;50.782;6.074;2022-09-12T03:31:54;99494.56;;;15.36;100.00
24858;BME280;12935;50.782;6.074;2022-09-12T03:34:21;99493.03;;;15.35;100.00
24858;BME280;12935;50.782;6.074;2022-09-12T03:36:47;99492.25;;;15.35;100.00
24858;BME280;12935;50.782;6.074;2022-09-12T03:39:12;99493.03;;;15.35;100.00
24858;BME280;12935;50.782;6.074;2022-09-12T03:41:38;99489.50;;;15.35;100.00
24858;BME280;12935;50.782;6.074;2022-09-12T03:44:03;99485.97;;;15.34;100.00
24858;BME280;12935;50.782;6.074;2022-09-12T03:46:29;99498.88;;;15.37;100.00
24858;BME280;12935;50.782;6.074;2022-09-12T03:48:54;99496.19;;;15.34;100.00
24858;BME280;12935;50.782;6.074;2022-09-12T03:51:19;99494.34;;;15.27;100.00
24858;BME280;12935;50.782;6.074;2022-09-12T03:53:45;99494.09;;;15.22;100.00
24858;BME280;12935;50.782;6.074;2022-09-12T03:56:11;99497.63;;;15.22;100.00
24858;BME280;12935;50.782;6.074;2022-09-12T03:58:37;99496.09;;;15.21;100.00
24858;BME280;12935;50.782;6.074;2022-09-12T04:01:07;99471.53;;;15.11;100.00
24858;BME280;12935;50.782;6.074;2022-09-12T04:03:36;99483.66;;;15.13;100.00
24858;BME280;12935;50.782;6.074;2022-09-12T04:06:01;99483.66;;;15.13;100.00
24858;BME280;12935;50.782;6.074;2022-09-12T04:08:26;99481.84;;;15.06;100.00
24858;BME280;12935;50.782;6.074;2022-09-12T04:10:52;99474.78;;;15.05;100.00
24858;BME280;12935;50.782;6.074;2022-09-12T04:13:18;99467.31;;;15.06;100.00
24858;BME280;12935;50.782;6.074;2022-09-12T04:15:43;99474.00;;;15.05;100.00
24858;BME280;12935;50.782;6.074;2022-09-12T04:18:08;99473.16;;;15.08;100.00
24858;BME280;12935;50.782;6.074;2022-09-12T04:20:35;99473.66;;;15.03;100.00
24858;BME280;12935;50.782;6.074;2022-09-12T04:23:00;99482.81;;;14.96;100.00
24858;BME280;12935;50.782;6.074;2022-09-12T04:25:25;99475.84;;;14.92;100.00
24858;BME280;12935;50.782;6.074;2022-09-12T04:27:52;99471.19;;;14.89;100.00
24858;BME280;12935;50.782;6.074;2022-09-12T04:30:17;99475.47;;;14.90;100.00
24858;BME280;12935;50.782;6.074;2022-09-12T04:32:43;99467.66;;;14.88;100.00
24858;BME280;12935;50.782;6.074;2022-09-12T04:35:08;99470.75;;;14.90;100.00
24858;BME280;12935;50.782;6.074;2022-09-12T04:37:35;99457.28;;;14.76;100.00
24858;BME280;12935;50.782;6.074;2022-09-12T04:40:00;99463.06;;;14.82;100.00
24858;BME280;12935;50.782;6.074;2022-09-12T04:42:25;99461.00;;;14.86;100.00
24858;BME280;12935;50.782;6.074;2022-09-12T04:44:51;99462.22;;;14.85;100.00
24858;BME280;12935;50.782;6.074;2022-09-12T04:47:16;99459.09;;;14.83;100.00
24858;BME280;12935;50.782;6.074;2022-09-12T04:49:41;99448.94;;;14.80;100.00
24858;BME280;12935;50.782;6.074;2022-09-12T04:52:07;99458.34;;;14.82;100.00
24858;BME280;12935;50.782;6.074;2022-09-12T04:54:32;99452.91;;;14.79;100.00
24858;BME280;12935;50.782;6.074;2022-09-12T04:56:58;99453.69;;;14.79;100.00
24858;BME280;12935;50.782;6.074;2022-09-12T04:59:24;99441.63;;;14.73;100.00
24858;BME280;12935;50.782;6.074;2022-09-12T05:01:49;99440.44;;;14.74;100.00
24858;BME280;12935;50.782;6.074;2022-09-12T05:04:14;99443.59;;;14.72;100.00
24858;BME280;12935;50.782;6.074;2022-09-12T05:06:40;99434.88;;;14.78;100.00
24858;BME280;12935;50.782;6.074;2022-09-12T05:09:09;99435.97;;;14.80;100.00
24858;BME280;12935;50.782;6.074;2022-09-12T05:11:38;99438.16;;;14.69;100.00
24858;BME280;12935;50.782;6.074;2022-09-12T05:14:04;99445.56;;;14.52;100.00
24858;BME280;12935;50.782;6.074;2022-09-12T05:16:29;99445.84;;;14.34;100.00
24858;BME280;12935;50.782;6.074;2022-09-12T05:18:58;99453.50;;;14.23;100.00
24858;BME280;12935;50.782;6.074;2022-09-12T05:21:24;99452.09;;;14.15;100.00
24858;BME280;12935;50.782;6.074;2022-09-12T05:23:51;99447.19;;;14.26;100.00
24858;BME280;12935;50.782;6.074;2022-09-12T05:26:17;99444.66;;;14.35;100.00
24858;BME280;12935;50.782;6.074;2022-09-12T05:28:45;99460.69;;;14.41;100.00
24858;BME280;12935;50.782;6.074;2022-09-12T05:31:12;99448.53;;;14.38;100.00
24858;BME280;12935;50.782;6.074;2022-09-12T05:33:39;99461.00;;;14.46;100.00
24858;BME280;12935;50.782;6.074;2022-09-12T05:36:06;99461.28;;;14.52;100.00
24858;BME280;12935;50.782;6.074;2022-09-12T05:38:34;99463.91;;;14.59;100.00
24858;BME280;12935;50.782;6.074;2022-09-12T05:41:07;99450.56;;;14.57;100.00
24858;BME280;12935;50.782;6.074;2022-09-12T05:43:34;99465.50;;;14.56;100.00
24858;BME280;12935;50.782;6.074;2022-09-12T05:46:01;99461.06;;;14.43;100.00
24858;BME280;12935;50.782;6.074;2022-09-12T05:48:26;99458.25;;;14.46;100.00
24858;BME280;12935;50.782;6.074;2022-09-12T05:50:58;99460.44;;;14.55;100.00
24858;BME280;12935;50.782;6.074;2022-09-12T05:53:23;99470.44;;;14.65;100.00
24858;BME280;12935;50.782;6.074;2022-09-12T05:56:04;99473.13;;;14.68;100.00
24858;BME280;12935;50.782;6.074;2022-09-12T05:58:30;99473.97;;;14.65;100.00
24858;BME280;12935;50.782;6.074;2022-09-12T06:01:00;99476.25;;;14.70;100.00
24858;BME280;12935;50.782;6.074;2022-09-12T06:03:25;99474.16;;;14.78;100.00
24858;BME280;12935;50.782;6.074;2022-09-12T06:05:51;99484.56;;;14.87;100.00
24858;BME280;12935;50.782;6.074;2022-09-12T06:08:16;99471.19;;;14.89;100.00
24858;BME280;12935;50.782;6.074;2022-09-12T06:10:42;99474.56;;;14.96;100.00
24858;BME280;12935;50.782;6.074;2022-09-12T06:13:07;99478.00;;;15.00;100.00
24858;BME280;12935;50.782;6.074;2022-09-12T06:15:32;99481.06;;;15.06;100.00
24858;BME280;12935;50.782;6.074;2022-09-12T06:17:58;99485.28;;;15.11;100.00
24858;BME280;12935;50.782;6.074;2022-09-12T06:20:23;99492.56;;;15.21;100.00
24858;BME280;12935;50.782;6.074;2022-09-12T06:22:52;99482.16;;;15.28;100.00
24858;BME280;12935;50.782;6.074;2022-09-12T06:25:17;99483.06;;;15.41;100.00
24858;BME280;12935;50.782;6.074;2022-09-12T06:27:42;99477.47;;;15.45;100.00
24858;BME280;12935;50.782;6.074;2022-09-12T06:30:08;99475.31;;;15.56;100.00
24858;BME280;12935;50.782;6.074;2022-09-12T06:32:33;99479.94;;;15.59;100.00
24858;BME280;12935;50.782;6.074;2022-09-12T06:34:59;99475.75;;;15.51;100.00
24858;BME280;12935;50.782;6.074;2022-09-12T06:37:24;99467.03;;;15.56;100.00
24858;BME280;12935;50.782;6.074;2022-09-12T06:39:49;99476.19;;;15.69;100.00
24858;BME280;12935;50.782;6.074;2022-09-12T06:42:14;99466.19;;;15.75;100.00
24858;BME280;12935;50.782;6.074;2022-09-12T06:44:40;99465.94;;;15.86;100.00
24858;BME280;12935;50.782;6.074;2022-09-12T06:47:05;99472.75;;;15.98;100.00
24858;BME280;12935;50.782;6.074;2022-09-12T06:49:31;99472.91;;;16.07;100.00
24858;BME280;12935;50.782;6.074;2022-09-12T06:51:57;99467.22;;;16.14;100.00
24858;BME280;12935;50.782;6.074;2022-09-12T06:54:23;99480.75;;;16.25;100.00
24858;BME280;12935;50.782;6.074;2022-09-12T06:56:50;99480.50;;;16.35;100.00
24858;BME280;12935;50.782;6.074;2022-09-12T06:59:15;99480.53;;;16.48;100.00
24858;BME280;12935;50.782;6.074;2022-09-12T07:01:41;99483.72;;;16.63;100.00
24858;BME280;12935;50.782;6.074;2022-09-12T07:04:06;99487.50;;;16.69;100.00
24858;BME280;12935;50.782;6.074;2022-09-12T07:06:37;99483.25;;;16.80;100.00
24858;BME280;12935;50.782;6.074;2022-09-12T07:09:05;99493.75;;;16.86;100.00
24858;BME280;12935;50.782;6.074;2022-09-12T07:11:33;99494.91;;;17.01;100.00
24858;BME280;12935;50.782;6.074;2022-09-12T07:14:00;99489.31;;;17.17;100.00
24858;BME280;12935;50.782;6.074;2022-09-12T07:16:27;99495.53;;;17.34;100.00
24858;BME280;12935;50.782;6.074;2022-09-12T07:18:57;99491.25;;;17.45;100.00
24858;BME280;12935;50.782;6.074;2022-09-12T07:21:23;99500.34;;;17.59;100.00
24858;BME280;12935;50.782;6.074;2022-09-12T07:23:49;99495.72;;;17.68;100.00
24858;BME280;12935;50.782;6.074;2022-09-12T07:26:16;99493.06;;;17.77;100.00
24858;BME280;12935;50.782;6.074;2022-09-12T07:28:42;99490.41;;;17.86;100.00
24858;BME280;12935;50.782;6.074;2022-09-12T07:31:11;99487.63;;;17.99;100.00
24858;BME280;12935;50.782;6.074;2022-09-12T07:33:37;99490.69;;;18.14;100.00
24858;BME280;12935;50.782;6.074;2022-09-12T07:36:05;99483.63;;;18.26;100.00
24858;BME280;12935;50.782;6.074;2022-09-12T07:38:31;99486.78;;;18.37;100.00
24858;BME280;12935;50.782;6.074;2022-09-12T07:40:56;99484.53;;;18.44;100.00
24858;BME280;12935;50.782;6.074;2022-09-12T07:43:22;99476.00;;;18.51;100.00
24858;BME280;12935;50.782;6.074;2022-09-12T07:45:53;99471.25;;;18.52;100.00
24858;BME280;12935;50.782;6.074;2022-09-12T07:48:19;99464.94;;;18.51;100.00
24858;BME280;12935;50.782;6.074;2022-09-12T07:50:44;99471.25;;;18.52;100.00
24858;BME280;12935;50.782;6.074;2022-09-12T07:53:09;99474.69;;;18.56;100.00
24858;BME280;12935;50.782;6.074;2022-09-12T07:55:35;99470.03;;;18.53;100.00
24858;BME280;12935;50.782;6.074;2022-09-12T07:58:00;99468.03;;;18.53;100.00
24858;BME280;12935;50.782;6.074;2022-09-12T08:00:26;99471.13;;;18.55;100.00
24858;BME280;12935;50.782;6.074;2022-09-12T08:02:59;99474.97;;;18.58;100.00
24858;BME280;12935;50.782;6.074;2022-09-12T08:05:26;99472.78;;;18.66;100.00
24858;BME280;12935;50.782;6.074;2022-09-12T08:07:52;99476.59;;;18.81;100.00
24858;BME280;12935;50.782;6.074;2022-09-12T08:10:17;99474.53;;;18.94;100.00
24858;BME280;12935;50.782;6.074;2022-09-12T08:12:42;99471.31;;;19.17;100.00
24858;BME280;12935;50.782;6.074;2022-09-12T08:15:08;99478.63;;;19.33;100.00
24858;BME280;12935;50.782;6.074;2022-09-12T08:17:33;99476.09;;;19.48;100.00
24858;BME280;12935;50.782;6.074;2022-09-12T08:19:59;99476.91;;;19.57;100.00
24858;BME280;12935;50.782;6.074;2022-09-12T08:22:24;99475.72;;;19.68;100.00
24858;BME280;12935;50.782;6.074;2022-09-12T08:24:50;99479.78;;;19.76;98.06
24858;BME280;12935;50.782;6.074;2022-09-12T08:27:15;99478.44;;;19.89;99.19
24858;BME280;12935;50.782;6.074;2022-09-12T08:29:40;99471.97;;;20.02;97.10
24858;BME280;12935;50.782;6.074;2022-09-12T08:32:06;99469.56;;;20.13;93.83
24858;BME280;12935;50.782;6.074;2022-09-12T08:34:31;99468.78;;;20.21;92.12
24858;BME280;12935;50.782;6.074;2022-09-12T08:36:56;99472.19;;;20.35;93.18
24858;BME280;12935;50.782;6.074;2022-09-12T08:39:22;99475.63;;;20.48;91.64
24858;BME280;12935;50.782;6.074;2022-09-12T08:41:57;99476.13;;;20.55;91.64
24858;BME280;12935;50.782;6.074;2022-09-12T08:44:30;99474.41;;;20.67;90.36
24858;BME280;12935;50.782;6.074;2022-09-12T08:55:26;99467.72;;;21.10;83.39
24858;BME280;12935;50.782;6.074;2022-09-12T08:57:55;99464.81;;;21.23;83.37
24858;BME280;12935;50.782;6.074;2022-09-12T09:00:20;99461.53;;;21.33;83.44
24858;BME280;12935;50.782;6.074;2022-09-12T09:03:11;99454.41;;;21.42;83.00
24858;BME280;12935;50.782;6.074;2022-09-12T09:06:20;99456.53;;;21.47;83.64
24858;BME280;12935;50.782;6.074;2022-09-12T09:09:09;99456.78;;;21.67;84.09
24858;BME280;12935;50.782;6.074;2022-09-12T09:11:48;99462.13;;;21.80;78.50
24858;BME280;12935;50.782;6.074;2022-09-12T09:16:59;99460.00;;;22.08;74.57
24858;BME280;12935;50.782;6.074;2022-09-12T09:19:35;99468.31;;;22.17;73.30
24858;BME280;12935;50.782;6.074;2022-09-12T09:22:05;99465.97;;;22.39;74.19
24858;BME280;12935;50.782;6.074;2022-09-12T09:24:39;99456.72;;;22.57;73.97
24858;BME280;12935;50.782;6.074;2022-09-12T09:29:43;99456.00;;;22.86;73.86
24858;BME280;12935;50.782;6.074;2022-09-12T09:32:37;99444.81;;;22.95;70.61
24858;BME280;12935;50.782;6.074;2022-09-12T09:36:00;99449.03;;;23.05;72.50
24858;BME280;12935;50.782;6.074;2022-09-12T09:40:50;99445.94;;;23.32;71.08
24858;BME280;12935;50.782;6.074;2022-09-12T09:43:22;99445.19;;;23.17;67.58
24858;BME280;12935;50.782;6.074;2022-09-12T09:45:49;99442.09;;;23.44;69.82
24858;BME280;12935;50.782;6.074;2022-09-12T09:48:17;99443.22;;;23.67;68.48
24858;BME280;12935;50.782;6.074;2022-09-12T09:50:45;99433.84;;;23.85;67.42
24858;BME280;12935;50.782;6.074;2022-09-12T09:53:21;99439.94;;;23.69;62.77
24858;BME280;12935;50.782;6.074;2022-09-12T09:55:50;99429.94;;;23.97;64.23
24858;BME280;12935;50.782;6.074;2022-09-12T09:58:30;99433.09;;;24.05;62.73
24858;BME280;12935;50.782;6.074;2022-09-12T10:01:00;99422.63;;;23.65;61.64
24858;BME280;12935;50.782;6.074;2022-09-12T10:03:37;99431.28;;;24.02;62.95
24858;BME280;12935;50.782;6.074;2022-09-12T10:08:43;99412.75;;;24.91;59.92
24858;BME280;12935;50.782;6.074;2022-09-12T10:18:47;99415.13;;;25.98;54.80
24858;BME280;12935;50.782;6.074;2022-09-12T10:21:36;99408.97;;;25.89;51.74
24858;BME280;12935;50.782;6.074;2022-09-12T10:26:52;99410.81;;;26.62;51.28
24858;BME280;12935;50.782;6.074;2022-09-12T10:29:28;99405.53;;;26.16;48.74
24858;BME280;12935;50.782;6.074;2022-09-12T10:32:01;99405.25;;;25.29;50.95
24858;BME280;12935;50.782;6.074;2022-09-12T10:34:35;99398.34;;;26.04;52.75
24858;BME280;12935;50.782;6.074;2022-09-12T10:37:04;99397.94;;;26.28;51.75
24858;BME280;12935;50.782;6.074;2022-09-12T10:39:31;99399.75;;;26.31;48.75
24858;BME280;12935;50.782;6.074;2022-09-12T10:41:58;99396.31;;;26.80;48.12
24858;BME280;12935;50.782;6.074;2022-09-12T10:44:29;99382.34;;;26.97;47.57
24858;BME280;12935;50.782;6.074;2022-09-12T10:46:56;99380.81;;;27.02;48.13
24858;BME280;12935;50.782;6.074;2022-09-12T10:49:31;99382.03;;;26.78;48.04
24858;BME280;12935;50.782;6.074;2022-09-12T10:52:22;99377.19;;;26.79;46.50
24858;BME280;12935;50.782;6.074;2022-09-12T10:54:50;99385.88;;;26.92;47.30
24858;BME280;12935;50.782;6.074;2022-09-12T10:58:24;99386.09;;;27.72;44.67
24858;BME280;12935;50.782;6.074;2022-09-12T11:00:17;99381.72;;;28.51;43.02
24858;BME280;12935;50.782;6.074;2022-09-12T11:02:51;99373.03;;;28.96;41.71
24858;BME280;12935;50.782;6.074;2022-09-12T11:05:41;99372.66;;;29.41;40.66
24858;BME280;12935;50.782;6.074;2022-09-12T11:13:49;99363.56;;;28.93;38.83
24858;BME280;12935;50.782;6.074;2022-09-12T11:16:20;99360.63;;;29.10;37.98
24858;BME280;12935;50.782;6.074;2022-09-12T11:27:21;99342.97;;;30.26;36.57
24858;BME280;12935;50.782;6.074;2022-09-12T11:30:11;99332.09;;;30.54;37.00
24858;BME280;12935;50.782;6.074;2022-09-12T11:40:31;99329.19;;;30.04;33.96
24858;BME280;12935;50.782;6.074;2022-09-12T11:43:19;99332.13;;;29.92;34.43
24858;BME280;12935;50.782;6.074;2022-09-12T11:45:48;99331.38;;;30.48;34.67
24858;BME280;12935;50.782;6.074;2022-09-12T11:48:33;99320.22;;;31.07;33.61
24858;BME280;12935;50.782;6.074;2022-09-12T11:51:02;99319.28;;;30.34;33.88
24858;BME280;12935;50.782;6.074;2022-09-12T11:53:35;99312.78;;;29.83;35.70
24858;BME280;12935;50.782;6.074;2022-09-12T11:58:28;99304.53;;;31.24;34.51
24858;BME280;12935;50.782;6.074;2022-09-12T12:01:16;99315.06;;;31.50;33.30
24858;BME280;12935;50.782;6.074;2022-09-12T12:03:45;99312.22;;;31.24;32.67
24858;BME280;12935;50.782;6.074;2022-09-12T12:06:20;99309.72;;;31.33;32.88
24858;BME280;12935;50.782;6.074;2022-09-12T12:08:47;99303.22;;;31.38;31.26
24858;BME280;12935;50.782;6.074;2022-09-12T12:11:25;99306.50;;;31.56;32.36
24858;BME280;12935;50.782;6.074;2022-09-12T12:13:56;99294.81;;;32.25;30.79
24858;BME280;12935;50.782;6.074;2022-09-12T12:16:32;99297.25;;;31.82;28.86
24858;BME280;12935;50.782;6.074;2022-09-12T12:19:04;99297.81;;;31.67;31.06
24858;BME280;12935;50.782;6.074;2022-09-12T12:21:38;99296.84;;;32.12;30.59
24858;BME280;12935;50.782;6.074;2022-09-12T12:29:08;99282.16;;;33.02;29.15
24858;BME280;12935;50.782;6.074;2022-09-12T12:34:35;99295.09;;;33.18;29.88
24858;BME280;12935;50.782;6.074;2022-09-12T12:57:57;99280.44;;;33.92;30.39
24858;BME280;12935;50.782;6.074;2022-09-12T13:00:24;99273.09;;;34.04;28.45
24858;BME280;12935;50.782;6.074;2022-09-12T13:05:44;99267.75;;;33.21;29.47
24858;BME280;12935;50.782;6.074;2022-09-12T13:10:59;99268.22;;;38.86;23.06
24858;BME280;12935;50.782;6.074;2022-09-12T13:15:59;99269.53;;;44.24;18.60
24858;BME280;12935;50.782;6.074;2022-09-12T13:18:27;99275.41;;;44.65;18.57
24858;BME280;12935;50.782;6.074;2022-09-12T13:21:17;99259.81;;;46.13;16.28
24858;BME280;12935;50.782;6.074;2022-09-12T13:23:44;99274.31;;;46.29;16.65
24858;BME280;12935;50.782;6.074;2022-09-12T13:26:24;99274.53;;;47.47;15.78
24858;BME280;12935;50.782;6.074;2022-09-12T13:29:11;99267.50;;;49.22;15.50
24858;BME280;12935;50.782;6.074;2022-09-12T13:31:39;99266.72;;;50.09;14.38
24858;BME280;12935;50.782;6.074;2022-09-12T13:34:06;99256.94;;;50.46;13.06
24858;BME280;12935;50.782;6.074;2022-09-12T13:36:45;99258.97;;;50.65;13.45
24858;BME280;12935;50.782;6.074;2022-09-12T13:39:27;99240.66;;;51.14;12.99
24858;BME280;12935;50.782;6.074;2022-09-12T13:47:34;99242.16;;;50.38;13.06
24858;BME280;12935;50.782;6.074;2022-09-12T13:50:03;99232.88;;;49.72;13.30
24858;BME280;12935;50.782;6.074;2022-09-12T13:52:32;99219.16;;;47.74;15.27
24858;BME280;12935;50.782;6.074;2022-09-12T13:54:59;99225.28;;;46.31;16.24
24858;BME280;12935;50.782;6.074;2022-09-12T13:59:56;99213.50;;;44.38;16.95
24858;BME280;12935;50.782;6.074;2022-09-12T14:02:25;99205.25;;;45.01;16.94
24858;BME280;12935;50.782;6.074;2022-09-12T14:04:52;99206.94;;;45.06;16.42
24858;BME280;12935;50.782;6.074;2022-09-12T14:07:56;99209.09;;;44.92;16.56
24858;BME280;12935;50.782;6.074;2022-09-12T14:10:27;99203.34;;;43.48;18.08
24858;BME280;12935;50.782;6.074;2022-09-12T14:12:57;99202.81;;;44.96;17.10
24858;BME280;12935;50.782;6.074;2022-09-12T14:15:25;99209.41;;;44.44;16.41
24858;BME280;12935;50.782;6.074;2022-09-12T14:17:54;99196.97;;;44.00;16.53
24858;BME280;12935;50.782;6.074;2022-09-12T14:20:21;99204.75;;;43.72;17.30
24858;BME280;12935;50.782;6.074;2022-09-12T14:22:49;99197.00;;;42.07;18.54
24858;BME280;12935;50.782;6.074;2022-09-12T14:25:17;99196.25;;;41.08;19.17
24858;BME280;12935;50.782;6.074;2022-09-12T14:27:50;99192.53;;;42.16;18.76
24858;BME280;12935;50.782;6.074;2022-09-12T14:30:29;99196.97;;;43.75;17.25
24858;BME280;12935;50.782;6.074;2022-09-12T14:35:30;99184.31;;;42.57;17.71
24858;BME280;12935;50.782;6.074;2022-09-12T14:38:05;99182.47;;;41.70;18.48
24858;BME280;12935;50.782;6.074;2022-09-12T14:40:40;99173.03;;;36.87;22.21
24858;BME280;12935;50.782;6.074;2022-09-12T14:43:17;99169.91;;;34.07;25.90
24858;BME280;12935;50.782;6.074;2022-09-12T14:45:51;99178.41;;;33.56;27.83
24858;BME280;12935;50.782;6.074;2022-09-12T14:48:18;99176.09;;;31.78;29.17
24858;BME280;12935;50.782;6.074;2022-09-12T14:50:47;99171.69;;;31.03;29.87
24858;BME280;12935;50.782;6.074;2022-09-12T14:55:44;99177.88;;;30.30;30.83
24858;BME280;12935;50.782;6.074;2022-09-12T14:58:20;99187.34;;;29.95;31.76
24858;BME280;12935;50.782;6.074;2022-09-12T15:03:55;99173.75;;;28.46;34.36
24858;BME280;12935;50.782;6.074;2022-09-12T15:06:25;99173.00;;;28.45;33.97
24858;BME280;12935;50.782;6.074;2022-09-12T15:08:53;99167.59;;;28.47;33.64
24858;BME280;12935;50.782;6.074;2022-09-12T15:11:19;99167.44;;;28.34;33.62
24858;BME280;12935;50.782;6.074;2022-09-12T15:13:44;99162.03;;;28.06;34.26
24858;BME280;12935;50.782;6.074;2022-09-12T15:16:10;99167.81;;;27.84;34.79
24858;BME280;12935;50.782;6.074;2022-09-12T15:18:36;99162.97;;;27.84;35.41
24858;BME280;12935;50.782;6.074;2022-09-12T15:21:04;99148.94;;;27.79;36.06
24858;BME280;12935;50.782;6.074;2022-09-12T15:23:50;99157.22;;;27.60;36.42
24858;BME280;12935;50.782;6.074;2022-09-12T15:26:23;99151.09;;;27.62;36.34
24858;BME280;12935;50.782;6.074;2022-09-12T15:28:51;99149.09;;;27.51;35.54